ELY5112 LIRN-LLBG
Flight info
| Callsign | ELY5112 |
|---|---|
| Flight time | N/A |
| Altitude | 35000 |
| Route | POLIT DCT EVINO DCT CRN DCT RUTOM UM601 MIL UN134 VANZA DCT PIKOG L609 ZUKKO |
| Aircraft | B738/M-SDE2E3FGHIRWXY/LB1 |
Departure
| Time | N/A |
|---|---|
| Airport | Naples International Airport (LIRN) |
Arrival
| Time | 2026-05-05 16:34 |
|---|---|
| Airport | Ben Gurion International Airport (LLBG) |
| Time | Latitude | Longitude | Altitude | Speed | Heading |
|---|---|---|---|---|---|
| 2026-05-05 15:31 | 35.39453 | 28.05734 | 35017 ft | 484 kts | 115° |
| 2026-05-05 15:31 | 35.36462 | 28.13121 | 35020 ft | 484 kts | 115° |
| 2026-05-05 15:32 | 35.33468 | 28.20499 | 35020 ft | 484 kts | 115° |
| 2026-05-05 15:32 | 35.30471 | 28.27872 | 35017 ft | 483 kts | 115° |
| 2026-05-05 15:33 | 35.27477 | 28.35234 | 35016 ft | 483 kts | 114° |
| 2026-05-05 15:33 | 35.25111 | 28.42900 | 35020 ft | 481 kts | 106° |
| 2026-05-05 15:34 | 35.22984 | 28.50659 | 35014 ft | 481 kts | 106° |
| 2026-05-05 15:34 | 35.20833 | 28.58416 | 35015 ft | 482 kts | 107° |
| 2026-05-05 15:35 | 35.18646 | 28.66157 | 35011 ft | 482 kts | 107° |
| 2026-05-05 15:35 | 35.16442 | 28.73892 | 35012 ft | 482 kts | 107° |
| 2026-05-05 15:36 | 35.14231 | 28.81631 | 35012 ft | 482 kts | 107° |
| 2026-05-05 15:36 | 35.12015 | 28.89372 | 35011 ft | 483 kts | 107° |
| 2026-05-05 15:37 | 35.09794 | 28.97110 | 35012 ft | 483 kts | 107° |
| 2026-05-05 15:37 | 35.07566 | 29.04851 | 35012 ft | 483 kts | 107° |
| 2026-05-05 15:38 | 35.05333 | 29.12590 | 35013 ft | 483 kts | 107° |
| 2026-05-05 15:38 | 35.03094 | 29.20329 | 35012 ft | 484 kts | 108° |
| 2026-05-05 15:39 | 35.00852 | 29.28061 | 35013 ft | 484 kts | 108° |
| 2026-05-05 15:39 | 34.98550 | 29.35770 | 35013 ft | 484 kts | 110° |
| 2026-05-05 15:40 | 34.95921 | 29.43328 | 35011 ft | 484 kts | 112° |
| 2026-05-05 15:40 | 34.93216 | 29.50839 | 35013 ft | 484 kts | 112° |
| 2026-05-05 15:41 | 34.90544 | 29.58357 | 35012 ft | 484 kts | 112° |
| 2026-05-05 15:41 | 34.87891 | 29.65883 | 35011 ft | 483 kts | 112° |
| 2026-05-05 15:42 | 34.85238 | 29.73406 | 35010 ft | 483 kts | 112° |
| 2026-05-05 15:42 | 34.82582 | 29.80914 | 35012 ft | 483 kts | 112° |
| 2026-05-05 15:43 | 34.79903 | 29.88464 | 35010 ft | 483 kts | 112° |
| 2026-05-05 15:43 | 34.77239 | 29.95958 | 35015 ft | 482 kts | 112° |
| 2026-05-05 15:44 | 34.74305 | 30.03286 | 35018 ft | 482 kts | 121° |
| 2026-05-05 15:44 | 34.70767 | 30.10211 | 35011 ft | 482 kts | 122° |
| 2026-05-05 15:45 | 34.67164 | 30.17084 | 35017 ft | 482 kts | 122° |
| 2026-05-05 15:45 | 34.63598 | 30.23980 | 35016 ft | 482 kts | 122° |
| 2026-05-05 15:46 | 34.60061 | 30.30890 | 35017 ft | 482 kts | 122° |
| 2026-05-05 15:46 | 34.56529 | 30.37799 | 35020 ft | 482 kts | 122° |
| 2026-05-05 15:47 | 34.52995 | 30.44699 | 35019 ft | 481 kts | 122° |
| 2026-05-05 15:47 | 34.49456 | 30.51589 | 35015 ft | 481 kts | 122° |
| 2026-05-05 15:48 | 34.45914 | 30.58471 | 35020 ft | 481 kts | 122° |
| 2026-05-05 15:48 | 34.42370 | 30.65344 | 35014 ft | 481 kts | 122° |
| 2026-05-05 15:49 | 34.38822 | 30.72209 | 35023 ft | 481 kts | 123° |
| 2026-05-05 15:49 | 34.35273 | 30.79065 | 35021 ft | 481 kts | 123° |
| 2026-05-05 15:50 | 34.31720 | 30.85915 | 35018 ft | 480 kts | 123° |
| 2026-05-05 15:50 | 34.28191 | 30.92706 | 35017 ft | 480 kts | 123° |
| 2026-05-05 15:51 | 34.24633 | 30.99539 | 35020 ft | 480 kts | 123° |
| 2026-05-05 15:51 | 34.21478 | 31.05587 | 35021 ft | 480 kts | 123° |
| 2026-05-05 15:52 | 34.17917 | 31.12402 | 35020 ft | 480 kts | 123° |
| 2026-05-05 15:52 | 34.14950 | 31.18069 | 35022 ft | 480 kts | 123° |
| 2026-05-05 15:53 | 34.11399 | 31.24841 | 35020 ft | 480 kts | 123° |
| 2026-05-05 15:53 | 34.07824 | 31.31646 | 35018 ft | 480 kts | 124° |
| 2026-05-05 15:54 | 34.04247 | 31.38442 | 35019 ft | 480 kts | 124° |
| 2026-05-05 15:54 | 34.00643 | 31.45276 | 35016 ft | 480 kts | 124° |
| 2026-05-05 15:55 | 33.97061 | 31.52055 | 35014 ft | 480 kts | 124° |
| 2026-05-05 15:55 | 33.93475 | 31.58831 | 35015 ft | 480 kts | 124° |
| 2026-05-05 15:56 | 33.89884 | 31.65601 | 35016 ft | 480 kts | 124° |
| 2026-05-05 15:56 | 33.86289 | 31.72367 | 35016 ft | 480 kts | 124° |
| 2026-05-05 15:57 | 33.82693 | 31.79123 | 35015 ft | 480 kts | 125° |
| 2026-05-05 15:57 | 33.79089 | 31.85879 | 35016 ft | 480 kts | 125° |
| 2026-05-05 15:58 | 33.75483 | 31.92629 | 35014 ft | 480 kts | 125° |
| 2026-05-05 15:58 | 33.71867 | 31.99383 | 35013 ft | 480 kts | 125° |
| 2026-05-05 15:59 | 33.68251 | 32.06126 | 35012 ft | 481 kts | 126° |
| 2026-05-05 15:59 | 33.64624 | 32.12876 | 35015 ft | 481 kts | 126° |
| 2026-05-05 16:00 | 33.61011 | 32.19590 | 34994 ft | 473 kts | 126° |
| 2026-05-05 16:00 | 33.57472 | 32.26159 | 35008 ft | 467 kts | 126° |
| 2026-05-05 16:01 | 33.53935 | 32.32700 | 34671 ft | 468 kts | 126° |
| 2026-05-05 16:01 | 33.52173 | 32.35957 | 34347 ft | 463 kts | 126° |
| 2026-05-05 16:01 | 33.50426 | 32.39186 | 33973 ft | 460 kts | 126° |
| 2026-05-05 16:01 | 33.48688 | 32.42393 | 33562 ft | 457 kts | 126° |
| 2026-05-05 16:02 | 33.46964 | 32.45574 | 33149 ft | 454 kts | 126° |
| 2026-05-05 16:02 | 33.45250 | 32.48732 | 32768 ft | 450 kts | 126° |
| 2026-05-05 16:02 | 33.43549 | 32.51863 | 32392 ft | 447 kts | 126° |
| 2026-05-05 16:02 | 33.41862 | 32.54965 | 32032 ft | 443 kts | 126° |
| 2026-05-05 16:03 | 33.40185 | 32.58045 | 31671 ft | 440 kts | 126° |
| 2026-05-05 16:03 | 33.38519 | 32.61103 | 31305 ft | 437 kts | 126° |
| 2026-05-05 16:03 | 33.36867 | 32.64133 | 30952 ft | 433 kts | 126° |
| 2026-05-05 16:03 | 33.35226 | 32.67140 | 30599 ft | 430 kts | 126° |
| 2026-05-05 16:04 | 33.33594 | 32.70130 | 30252 ft | 427 kts | 126° |
| 2026-05-05 16:04 | 33.31973 | 32.73094 | 29861 ft | 424 kts | 126° |
| 2026-05-05 16:04 | 33.30515 | 32.75760 | 29527 ft | 421 kts | 126° |
| 2026-05-05 16:04 | 33.29123 | 32.78305 | 29202 ft | 417 kts | 126° |
| 2026-05-05 16:05 | 33.28684 | 32.79106 | 29089 ft | 416 kts | 126° |
| 2026-05-05 16:05 | 33.28079 | 32.80210 | 28937 ft | 415 kts | 126° |
| 2026-05-05 16:05 | 33.26508 | 32.83077 | 28574 ft | 411 kts | 126° |
| 2026-05-05 16:05 | 33.24950 | 32.85919 | 28223 ft | 407 kts | 126° |
| 2026-05-05 16:06 | 33.23405 | 32.88734 | 27871 ft | 404 kts | 127° |
| 2026-05-05 16:06 | 33.21868 | 32.91533 | 27502 ft | 401 kts | 126° |
| 2026-05-05 16:06 | 33.20345 | 32.94302 | 27163 ft | 398 kts | 126° |
| 2026-05-05 16:06 | 33.18833 | 32.97050 | 26808 ft | 395 kts | 127° |
| 2026-05-05 16:07 | 33.17328 | 32.99783 | 26464 ft | 392 kts | 127° |
| 2026-05-05 16:07 | 33.15834 | 33.02496 | 26121 ft | 390 kts | 127° |
| 2026-05-05 16:07 | 33.14349 | 33.05189 | 25791 ft | 387 kts | 127° |
| 2026-05-05 16:07 | 33.13350 | 33.07000 | 25553 ft | 386 kts | 127° |
| 2026-05-05 16:08 | 33.12368 | 33.08778 | 25332 ft | 384 kts | 127° |
| 2026-05-05 16:08 | 33.10901 | 33.11435 | 24986 ft | 383 kts | 127° |
| 2026-05-05 16:08 | 33.10042 | 33.12990 | 24807 ft | 381 kts | 127° |
| 2026-05-05 16:08 | 33.08583 | 33.15628 | 24467 ft | 380 kts | 127° |
| 2026-05-05 16:09 | 33.07132 | 33.18250 | 24134 ft | 378 kts | 127° |
| 2026-05-05 16:09 | 33.05687 | 33.20861 | 23818 ft | 377 kts | 127° |
| 2026-05-05 16:09 | 33.04247 | 33.23459 | 23445 ft | 375 kts | 126° |
| 2026-05-05 16:09 | 33.02810 | 33.26052 | 23059 ft | 374 kts | 126° |
| 2026-05-05 16:10 | 33.01383 | 33.28624 | 22712 ft | 372 kts | 126° |
| 2026-05-05 16:10 | 32.99960 | 33.31187 | 22363 ft | 369 kts | 126° |
| 2026-05-05 16:10 | 32.98528 | 33.33765 | 22023 ft | 367 kts | 126° |
| 2026-05-05 16:10 | 32.97142 | 33.36258 | 21695 ft | 365 kts | 126° |
| 2026-05-05 16:11 | 32.95745 | 33.38769 | 21375 ft | 363 kts | 126° |
| 2026-05-05 16:11 | 32.91578 | 33.46250 | 20396 ft | 357 kts | 126° |
| 2026-05-05 16:12 | 32.90209 | 33.48704 | 20078 ft | 356 kts | 126° |
| 2026-05-05 16:12 | 32.87482 | 33.53589 | 19438 ft | 353 kts | 126° |
| 2026-05-05 16:13 | 32.83417 | 33.60858 | 18464 ft | 351 kts | 126° |
| 2026-05-05 16:13 | 32.82007 | 33.63220 | 18099 ft | 349 kts | 133° |
| 2026-05-05 16:13 | 32.80379 | 33.65341 | 17761 ft | 346 kts | 137° |
| 2026-05-05 16:14 | 32.77018 | 33.69391 | 17097 ft | 342 kts | 138° |
| 2026-05-05 16:14 | 32.73697 | 33.73405 | 16464 ft | 339 kts | 137° |
| 2026-05-05 16:15 | 32.70428 | 33.77408 | 15832 ft | 336 kts | 137° |
| 2026-05-05 16:15 | 32.67195 | 33.81384 | 15206 ft | 333 kts | 137° |
| 2026-05-05 16:16 | 32.63983 | 33.85336 | 14575 ft | 331 kts | 137° |
| 2026-05-05 16:16 | 32.60794 | 33.89257 | 13953 ft | 329 kts | 136° |
| 2026-05-05 16:17 | 32.57625 | 33.93149 | 13289 ft | 327 kts | 136° |
| 2026-05-05 16:17 | 32.56148 | 33.94960 | 12992 ft | 325 kts | 136° |
| 2026-05-05 16:18 | 32.53055 | 33.98812 | 12523 ft | 316 kts | 136° |
| 2026-05-05 16:18 | 32.51547 | 34.00698 | 12303 ft | 315 kts | 136° |
| 2026-05-05 16:18 | 32.48534 | 34.04457 | 11872 ft | 315 kts | 136° |
| 2026-05-05 16:19 | 32.47027 | 34.06335 | 11647 ft | 315 kts | 136° |
| 2026-05-05 16:19 | 32.45516 | 34.08215 | 11419 ft | 315 kts | 136° |
| 2026-05-05 16:19 | 32.42767 | 34.12213 | 10938 ft | 317 kts | 112° |
| 2026-05-05 16:20 | 32.41757 | 34.17217 | 10487 ft | 310 kts | 101° |
| 2026-05-05 16:20 | 32.40916 | 34.22167 | 9997 ft | 304 kts | 101° |
| 2026-05-05 16:21 | 32.40058 | 34.27022 | 9485 ft | 298 kts | 102° |
| 2026-05-05 16:22 | 32.38827 | 34.33849 | 8922 ft | 292 kts | 102° |
| 2026-05-05 16:22 | 32.37983 | 34.38513 | 8697 ft | 289 kts | 102° |
| 2026-05-05 16:23 | 32.37135 | 34.43187 | 8476 ft | 292 kts | 102° |
| 2026-05-05 16:23 | 32.36709 | 34.45536 | 8364 ft | 293 kts | 102° |
| 2026-05-05 16:23 | 32.35846 | 34.50275 | 8131 ft | 295 kts | 103° |
| 2026-05-05 16:24 | 32.35413 | 34.52559 | 7996 ft | 295 kts | 107° |
| 2026-05-05 16:24 | 32.34678 | 34.54929 | 7776 ft | 298 kts | 115° |
| 2026-05-05 16:24 | 32.32988 | 34.59367 | 7324 ft | 293 kts | 116° |
| 2026-05-05 16:25 | 32.32161 | 34.61551 | 7101 ft | 289 kts | 116° |
| 2026-05-05 16:25 | 32.30577 | 34.65843 | 6690 ft | 281 kts | 115° |
| 2026-05-05 16:25 | 32.29805 | 34.67961 | 6487 ft | 280 kts | 115° |
| 2026-05-05 16:26 | 32.28272 | 34.72169 | 6043 ft | 277 kts | 115° |
| 2026-05-05 16:26 | 32.26757 | 34.76326 | 5641 ft | 275 kts | 115° |
| 2026-05-05 16:27 | 32.25994 | 34.78414 | 5441 ft | 278 kts | 115° |
| 2026-05-05 16:27 | 32.25243 | 34.80524 | 5230 ft | 279 kts | 111° |
| 2026-05-05 16:27 | 32.24651 | 34.82707 | 5021 ft | 278 kts | 108° |
| 2026-05-05 16:27 | 32.24112 | 34.84895 | 4813 ft | 277 kts | 107° |
| 2026-05-05 16:28 | 32.23570 | 34.87063 | 4593 ft | 273 kts | 107° |
| 2026-05-05 16:28 | 32.23025 | 34.89201 | 4382 ft | 270 kts | 108° |
| 2026-05-05 16:28 | 32.22483 | 34.91298 | 4182 ft | 263 kts | 108° |
| 2026-05-05 16:28 | 32.21956 | 34.93333 | 3957 ft | 256 kts | 108° |
| 2026-05-05 16:29 | 32.21439 | 34.95314 | 3743 ft | 248 kts | 108° |
| 2026-05-05 16:29 | 32.20897 | 34.97208 | 3541 ft | 239 kts | 120° |
| 2026-05-05 16:29 | 32.20236 | 34.98240 | 3427 ft | 229 kts | 144° |
| 2026-05-05 16:29 | 32.18877 | 34.99066 | 3297 ft | 217 kts | 172° |
| 2026-05-05 16:30 | 32.17384 | 34.99214 | 3166 ft | 216 kts | 188° |
| 2026-05-05 16:30 | 32.15902 | 34.98951 | 2970 ft | 215 kts | 207° |
| 2026-05-05 16:30 | 32.14547 | 34.98234 | 2844 ft | 213 kts | 211° |
| 2026-05-05 16:30 | 32.13261 | 34.97452 | 2704 ft | 201 kts | 214° |
| 2026-05-05 16:31 | 32.12061 | 34.96675 | 2458 ft | 193 kts | 214° |
| 2026-05-05 16:31 | 32.10912 | 34.95929 | 2189 ft | 182 kts | 215° |
| 2026-05-05 16:31 | 32.09849 | 34.95240 | 1974 ft | 166 kts | 216° |
| 2026-05-05 16:31 | 32.08891 | 34.94618 | 1748 ft | 151 kts | 216° |
| 2026-05-05 16:32 | 32.07993 | 34.94033 | 1552 ft | 146 kts | 217° |
| 2026-05-05 16:32 | 32.07115 | 34.93462 | 1345 ft | 141 kts | 216° |
| 2026-05-05 16:32 | 32.06279 | 34.92921 | 1154 ft | 136 kts | 216° |
| 2026-05-05 16:32 | 32.05443 | 34.92376 | 968 ft | 140 kts | 214° |
| 2026-05-05 16:33 | 32.04564 | 34.91807 | 810 ft | 147 kts | 214° |
| 2026-05-05 16:33 | 32.03636 | 34.91206 | 585 ft | 154 kts | 213° |
| 2026-05-05 16:33 | 32.02705 | 34.90626 | 389 ft | 147 kts | 216° |
| 2026-05-05 16:33 | 32.01809 | 34.90033 | 179 ft | 149 kts | 215° |
| 2026-05-05 16:34 | 32.00956 | 34.89471 | 121 ft | 122 kts | 210° |
| 2026-05-05 16:34 | 32.00443 | 34.89134 | 115 ft | 49 kts | 208° |
| 2026-05-05 16:34 | 32.00227 | 34.88979 | 115 ft | 34 kts | 224° |
| 2026-05-05 16:34 | 32.00136 | 34.88827 | 116 ft | 8 kts | 239° |
| 2026-05-05 16:35 | 32.00108 | 34.88771 | 117 ft | 8 kts | 239° |
| 2026-05-05 16:35 | 32.00082 | 34.88716 | 118 ft | 8 kts | 253° |
| 2026-05-05 16:35 | 32.00090 | 34.88653 | 119 ft | 9 kts | 300° |
| 2026-05-05 16:35 | 32.00126 | 34.88583 | 118 ft | 12 kts | 301° |
| 2026-05-05 16:36 | 32.00174 | 34.88490 | 117 ft | 16 kts | 301° |
| 2026-05-05 16:36 | 32.00241 | 34.88361 | 115 ft | 21 kts | 302° |
| 2026-05-05 16:36 | 32.00319 | 34.88213 | 115 ft | 21 kts | 302° |
| 2026-05-05 16:36 | 32.00395 | 34.88069 | 116 ft | 19 kts | 302° |
| 2026-05-05 16:37 | 32.00449 | 34.87956 | 116 ft | 12 kts | 281° |
| 2026-05-05 16:37 | 32.00418 | 34.87896 | 119 ft | 5 kts | 213° |
| 2026-05-05 16:37 | 32.00388 | 34.87872 | 118 ft | 5 kts | 213° |
| 2026-05-05 16:37 | 32.00353 | 34.87849 | 119 ft | 7 kts | 209° |
| 2026-05-05 16:38 | 32.00320 | 34.87842 | 116 ft | 2 kts | 158° |
| 2026-05-05 16:38 | 32.00315 | 34.87859 | 118 ft | 3 kts | 96° |
| 2026-05-05 16:38 | 32.00310 | 34.87902 | 118 ft | 5 kts | 104° |
| 2026-05-05 16:38 | 32.00306 | 34.87920 | 116 ft | 1 kts | 104° |
| 2026-05-05 16:39 | 32.00305 | 34.87926 | 117 ft | 0 kts | 104° |
| 2026-05-05 16:39 | 32.00304 | 34.87930 | 117 ft | 0 kts | 104° |
| 2026-05-05 16:39 | 32.00304 | 34.87931 | 117 ft | 0 kts | 104° |